sensor_id;sensor_type;location;lat;lon;timestamp;P1;durP1;ratioP1;P2;durP2;ratioP2
17261;SDS011;9873;52.236;21.002;2023-02-13T00:05:58;40.33;;;16.57;;
17261;SDS011;9873;52.236;21.002;2023-02-13T00:16:00;38.83;;;14.67;;
17261;SDS011;9873;52.236;21.002;2023-02-13T00:26:07;38.53;;;15.73;;
17261;SDS011;9873;52.236;21.002;2023-02-13T00:36:20;30.37;;;14.90;;
17261;SDS011;9873;52.236;21.002;2023-02-13T00:46:25;33.20;;;13.47;;
17261;SDS011;9873;52.236;21.002;2023-02-13T00:56:29;31.07;;;15.17;;
17261;SDS011;9873;52.236;21.002;2023-02-13T01:06:36;28.63;;;16.00;;
17261;SDS011;9873;52.236;21.002;2023-02-13T01:16:41;34.70;;;14.53;;
17261;SDS011;9873;52.236;21.002;2023-02-13T01:26:43;27.00;;;12.90;;
17261;SDS011;9873;52.236;21.002;2023-02-13T01:36:50;30.33;;;13.93;;
17261;SDS011;9873;52.236;21.002;2023-02-13T01:46:52;35.93;;;15.97;;
17261;SDS011;9873;52.236;21.002;2023-02-13T01:57:01;25.53;;;13.80;;
17261;SDS011;9873;52.236;21.002;2023-02-13T02:07:27;28.43;;;13.67;;
17261;SDS011;9873;52.236;21.002;2023-02-13T02:17:35;24.37;;;13.33;;
17261;SDS011;9873;52.236;21.002;2023-02-13T02:27:52;25.53;;;13.60;;
17261;SDS011;9873;52.236;21.002;2023-02-13T02:48:30;28.37;;;13.27;;
17261;SDS011;9873;52.236;21.002;2023-02-13T02:58:59;25.50;;;12.73;;
17261;SDS011;9873;52.236;21.002;2023-02-13T03:09:30;27.50;;;12.50;;
17261;SDS011;9873;52.236;21.002;2023-02-13T03:31:04;24.07;;;12.00;;
17261;SDS011;9873;52.236;21.002;2023-02-13T03:41:22;21.67;;;13.00;;
17261;SDS011;9873;52.236;21.002;2023-02-13T03:51:29;28.20;;;12.57;;
17261;SDS011;9873;52.236;21.002;2023-02-13T04:01:37;19.73;;;10.73;;
17261;SDS011;9873;52.236;21.002;2023-02-13T04:22:00;21.40;;;11.60;;
17261;SDS011;9873;52.236;21.002;2023-02-13T04:32:03;22.10;;;12.13;;
17261;SDS011;9873;52.236;21.002;2023-02-13T04:42:07;25.90;;;12.67;;
17261;SDS011;9873;52.236;21.002;2023-02-13T04:52:09;20.93;;;11.87;;
17261;SDS011;9873;52.236;21.002;2023-02-13T05:02:11;24.07;;;11.77;;
17261;SDS011;9873;52.236;21.002;2023-02-13T05:12:13;29.03;;;13.50;;
17261;SDS011;9873;52.236;21.002;2023-02-13T05:22:16;21.53;;;12.60;;
17261;SDS011;9873;52.236;21.002;2023-02-13T05:32:39;24.20;;;13.60;;
17261;SDS011;9873;52.236;21.002;2023-02-13T05:42:43;22.70;;;12.57;;
17261;SDS011;9873;52.236;21.002;2023-02-13T05:52:48;28.47;;;12.77;;
17261;SDS011;9873;52.236;21.002;2023-02-13T06:02:54;22.80;;;12.80;;
17261;SDS011;9873;52.236;21.002;2023-02-13T06:12:56;26.30;;;12.87;;
17261;SDS011;9873;52.236;21.002;2023-02-13T06:22:58;20.13;;;12.53;;
17261;SDS011;9873;52.236;21.002;2023-02-13T06:33:00;19.23;;;11.33;;
17261;SDS011;9873;52.236;21.002;2023-02-13T06:43:05;27.57;;;12.90;;
17261;SDS011;9873;52.236;21.002;2023-02-13T06:53:07;24.83;;;13.50;;
17261;SDS011;9873;52.236;21.002;2023-02-13T07:03:09;21.80;;;10.63;;
17261;SDS011;9873;52.236;21.002;2023-02-13T07:13:11;19.50;;;10.40;;
17261;SDS011;9873;52.236;21.002;2023-02-13T07:23:16;22.23;;;10.53;;
17261;SDS011;9873;52.236;21.002;2023-02-13T07:33:19;21.50;;;10.07;;
17261;SDS011;9873;52.236;21.002;2023-02-13T07:43:23;13.77;;;8.33;;
17261;SDS011;9873;52.236;21.002;2023-02-13T07:53:28;16.17;;;8.90;;
17261;SDS011;9873;52.236;21.002;2023-02-13T08:03:33;15.27;;;7.93;;
17261;SDS011;9873;52.236;21.002;2023-02-13T08:13:39;17.07;;;10.63;;
17261;SDS011;9873;52.236;21.002;2023-02-13T08:23:44;13.77;;;6.97;;
17261;SDS011;9873;52.236;21.002;2023-02-13T08:33:48;11.93;;;6.97;;
17261;SDS011;9873;52.236;21.002;2023-02-13T08:43:53;11.37;;;6.10;;
17261;SDS011;9873;52.236;21.002;2023-02-13T08:54:00;8.10;;;5.23;;
17261;SDS011;9873;52.236;21.002;2023-02-13T09:04:02;7.23;;;5.00;;
17261;SDS011;9873;52.236;21.002;2023-02-13T09:14:05;8.80;;;5.00;;
17261;SDS011;9873;52.236;21.002;2023-02-13T09:24:08;9.77;;;6.17;;
17261;SDS011;9873;52.236;21.002;2023-02-13T09:34:16;7.87;;;4.80;;
17261;SDS011;9873;52.236;21.002;2023-02-13T09:54:40;9.43;;;5.37;;
17261;SDS011;9873;52.236;21.002;2023-02-13T10:04:55;9.87;;;4.83;;
17261;SDS011;9873;52.236;21.002;2023-02-13T10:15:13;11.30;;;5.00;;
17261;SDS011;9873;52.236;21.002;2023-02-13T10:25:40;11.53;;;5.60;;
17261;SDS011;9873;52.236;21.002;2023-02-13T10:46:19;10.37;;;5.90;;
17261;SDS011;9873;52.236;21.002;2023-02-13T10:56:31;9.50;;;5.47;;
17261;SDS011;9873;52.236;21.002;2023-02-13T11:06:47;9.60;;;6.43;;
17261;SDS011;9873;52.236;21.002;2023-02-13T11:17:00;11.30;;;6.77;;
17261;SDS011;9873;52.236;21.002;2023-02-13T11:27:07;12.07;;;7.37;;
17261;SDS011;9873;52.236;21.002;2023-02-13T11:47:34;12.40;;;8.03;;
17261;SDS011;9873;52.236;21.002;2023-02-13T11:57:45;14.57;;;7.70;;
17261;SDS011;9873;52.236;21.002;2023-02-13T12:08:00;11.60;;;7.70;;
17261;SDS011;9873;52.236;21.002;2023-02-13T12:28:33;9.60;;;7.00;;
17261;SDS011;9873;52.236;21.002;2023-02-13T12:49:19;11.10;;;7.53;;
17261;SDS011;9873;52.236;21.002;2023-02-13T13:30:45;12.87;;;7.73;;
17261;SDS011;9873;52.236;21.002;2023-02-13T13:51:47;14.67;;;8.27;;
17261;SDS011;9873;52.236;21.002;2023-02-13T14:01:49;14.97;;;7.10;;
17261;SDS011;9873;52.236;21.002;2023-02-13T14:22:34;12.83;;;7.23;;
17261;SDS011;9873;52.236;21.002;2023-02-13T14:32:42;13.00;;;8.23;;
17261;SDS011;9873;52.236;21.002;2023-02-13T14:42:50;13.07;;;7.77;;
17261;SDS011;9873;52.236;21.002;2023-02-13T14:53:07;12.03;;;7.87;;
17261;SDS011;9873;52.236;21.002;2023-02-13T15:03:28;12.13;;;7.30;;
17261;SDS011;9873;52.236;21.002;2023-02-13T15:13:33;10.00;;;5.70;;
17261;SDS011;9873;52.236;21.002;2023-02-13T15:23:38;10.13;;;5.73;;
17261;SDS011;9873;52.236;21.002;2023-02-13T15:33:49;10.33;;;5.70;;
17261;SDS011;9873;52.236;21.002;2023-02-13T15:43:59;11.83;;;6.40;;
17261;SDS011;9873;52.236;21.002;2023-02-13T16:04:11;7.27;;;4.57;;
17261;SDS011;9873;52.236;21.002;2023-02-13T16:24:30;6.27;;;4.67;;
17261;SDS011;9873;52.236;21.002;2023-02-13T16:34:34;8.37;;;4.47;;
17261;SDS011;9873;52.236;21.002;2023-02-13T16:44:37;8.77;;;5.07;;
17261;SDS011;9873;52.236;21.002;2023-02-13T16:54:55;6.07;;;4.40;;
17261;SDS011;9873;52.236;21.002;2023-02-13T17:15:14;9.00;;;3.97;;
17261;SDS011;9873;52.236;21.002;2023-02-13T17:35:21;8.90;;;3.53;;
17261;SDS011;9873;52.236;21.002;2023-02-13T17:45:28;7.27;;;4.47;;
17261;SDS011;9873;52.236;21.002;2023-02-13T17:55:35;8.87;;;3.80;;
17261;SDS011;9873;52.236;21.002;2023-02-13T18:05:44;7.03;;;4.50;;
17261;SDS011;9873;52.236;21.002;2023-02-13T18:15:51;11.80;;;4.43;;
17261;SDS011;9873;52.236;21.002;2023-02-13T18:25:53;8.67;;;4.13;;
17261;SDS011;9873;52.236;21.002;2023-02-13T18:36:01;8.83;;;4.67;;
17261;SDS011;9873;52.236;21.002;2023-02-13T18:46:04;9.53;;;5.17;;
17261;SDS011;9873;52.236;21.002;2023-02-13T18:56:11;6.90;;;5.00;;
17261;SDS011;9873;52.236;21.002;2023-02-13T19:06:18;8.50;;;4.80;;
17261;SDS011;9873;52.236;21.002;2023-02-13T19:16:24;7.77;;;4.87;;
17261;SDS011;9873;52.236;21.002;2023-02-13T19:26:28;10.67;;;5.10;;
17261;SDS011;9873;52.236;21.002;2023-02-13T19:36:35;10.43;;;4.50;;
17261;SDS011;9873;52.236;21.002;2023-02-13T19:46:37;8.57;;;4.63;;
17261;SDS011;9873;52.236;21.002;2023-02-13T19:56:40;8.23;;;4.90;;
17261;SDS011;9873;52.236;21.002;2023-02-13T20:06:43;9.27;;;4.80;;
17261;SDS011;9873;52.236;21.002;2023-02-13T20:16:45;8.67;;;4.40;;
17261;SDS011;9873;52.236;21.002;2023-02-13T20:26:53;9.63;;;4.83;;
17261;SDS011;9873;52.236;21.002;2023-02-13T20:36:59;9.20;;;4.70;;
17261;SDS011;9873;52.236;21.002;2023-02-13T20:47:03;6.33;;;4.13;;
17261;SDS011;9873;52.236;21.002;2023-02-13T20:57:06;12.00;;;5.77;;
17261;SDS011;9873;52.236;21.002;2023-02-13T21:07:08;7.23;;;4.00;;
17261;SDS011;9873;52.236;21.002;2023-02-13T21:17:12;7.23;;;4.13;;
17261;SDS011;9873;52.236;21.002;2023-02-13T21:27:18;6.33;;;4.13;;
17261;SDS011;9873;52.236;21.002;2023-02-13T21:37:26;6.03;;;4.13;;
17261;SDS011;9873;52.236;21.002;2023-02-13T21:47:28;7.40;;;4.40;;
17261;SDS011;9873;52.236;21.002;2023-02-13T21:57:33;6.37;;;3.77;;
17261;SDS011;9873;52.236;21.002;2023-02-13T22:07:35;5.97;;;3.77;;
17261;SDS011;9873;52.236;21.002;2023-02-13T22:18:02;9.20;;;4.70;;
17261;SDS011;9873;52.236;21.002;2023-02-13T22:28:07;11.07;;;6.37;;
17261;SDS011;9873;52.236;21.002;2023-02-13T22:38:10;8.97;;;4.77;;
17261;SDS011;9873;52.236;21.002;2023-02-13T22:48:17;7.07;;;4.23;;
17261;SDS011;9873;52.236;21.002;2023-02-13T22:58:19;10.80;;;4.80;;
17261;SDS011;9873;52.236;21.002;2023-02-13T23:08:21;6.87;;;4.20;;
17261;SDS011;9873;52.236;21.002;2023-02-13T23:18:23;8.30;;;4.70;;
17261;SDS011;9873;52.236;21.002;2023-02-13T23:28:28;7.57;;;4.83;;
17261;SDS011;9873;52.236;21.002;2023-02-13T23:38:30;11.93;;;5.43;;
17261;SDS011;9873;52.236;21.002;2023-02-13T23:48:34;7.07;;;4.57;;
17261;SDS011;9873;52.236;21.002;2023-02-13T23:58:36;6.67;;;4.80;;
